createdAt,value
2023-05-17T00:01:48.253Z,18.90
2023-05-17T00:04:16.526Z,18.90
2023-05-17T00:06:44.593Z,18.90
2023-05-17T00:09:12.521Z,18.90
2023-05-17T00:11:41.772Z,18.90
2023-05-17T00:14:09.711Z,18.90
2023-05-17T00:16:37.626Z,18.90
2023-05-17T00:19:05.601Z,18.90
2023-05-17T00:21:33.615Z,18.90
2023-05-17T00:24:01.514Z,18.90
2023-05-17T00:26:29.431Z,18.90
2023-05-17T00:28:58.663Z,18.90
2023-05-17T00:31:26.580Z,18.90
2023-05-17T00:33:54.560Z,18.90
2023-05-17T00:36:22.635Z,18.90
2023-05-17T00:38:50.533Z,18.90
2023-05-17T00:41:18.620Z,18.90
2023-05-17T00:43:46.564Z,18.90
2023-05-17T00:46:16.129Z,18.90
2023-05-17T00:48:44.394Z,18.90
2023-05-17T00:51:13.015Z,18.90
2023-05-17T00:53:41.072Z,18.90
2023-05-17T00:56:09.117Z,18.90
2023-05-17T00:58:38.642Z,18.90
2023-05-17T01:01:06.789Z,18.90
2023-05-17T01:03:36.822Z,18.90
2023-05-17T01:06:06.026Z,18.90
2023-05-17T01:08:34.492Z,18.90
2023-05-17T01:11:13.168Z,18.90
2023-05-17T01:13:50.017Z,18.90
2023-05-17T01:16:23.983Z,18.90
2023-05-17T01:19:01.497Z,18.90
2023-05-17T01:21:41.380Z,18.90
2023-05-17T01:24:26.289Z,18.80
2023-05-17T01:26:57.778Z,18.80
2023-05-17T01:29:29.213Z,18.80
2023-05-17T01:31:58.594Z,18.80
2023-05-17T01:34:27.548Z,18.90
2023-05-17T01:36:56.064Z,18.80
2023-05-17T01:39:24.036Z,18.80
2023-05-17T01:42:00.923Z,18.80
2023-05-17T01:44:34.368Z,18.80
2023-05-17T01:47:10.819Z,18.80
2023-05-17T01:49:41.327Z,18.80
2023-05-17T01:52:15.159Z,18.80
2023-05-17T01:54:49.388Z,18.80
2023-05-17T01:57:26.061Z,18.80
2023-05-17T01:59:55.396Z,18.80
2023-05-17T02:02:23.870Z,18.80
2023-05-17T02:04:52.449Z,18.80
2023-05-17T02:07:20.333Z,18.80
2023-05-17T02:09:48.304Z,18.80
2023-05-17T02:12:16.231Z,18.80
2023-05-17T02:14:45.599Z,18.80
2023-05-17T02:17:13.617Z,18.80
2023-05-17T02:19:41.925Z,18.80
2023-05-17T02:22:10.925Z,18.80
2023-05-17T02:24:39.008Z,18.80
2023-05-17T02:27:10.147Z,18.80
2023-05-17T02:29:38.139Z,18.80
2023-05-17T02:32:08.347Z,18.80
2023-05-17T02:34:36.398Z,18.80
2023-05-17T02:37:04.347Z,18.80
2023-05-17T02:39:33.779Z,18.80
2023-05-17T02:42:01.702Z,18.80
2023-05-17T02:44:29.630Z,18.70
2023-05-17T02:46:57.507Z,18.70
2023-05-17T02:49:26.748Z,18.70
2023-05-17T02:51:54.733Z,18.70
2023-05-17T02:54:22.651Z,18.70
2023-05-17T02:56:50.661Z,18.70
2023-05-17T02:59:18.530Z,18.70
2023-05-17T03:01:46.449Z,18.70
2023-05-17T03:04:14.447Z,18.70
2023-05-17T03:06:43.833Z,18.70
2023-05-17T03:09:11.782Z,18.70
2023-05-17T03:11:39.671Z,18.70
2023-05-17T03:14:07.546Z,18.70
2023-05-17T03:16:35.490Z,18.70
2023-05-17T03:19:03.663Z,18.70
2023-05-17T03:21:31.679Z,18.70
2023-05-17T03:24:00.966Z,18.70
2023-05-17T03:26:28.911Z,18.70
2023-05-17T03:28:56.777Z,18.70
2023-05-17T03:31:24.734Z,18.70
2023-05-17T03:33:52.799Z,18.70
2023-05-17T03:36:20.907Z,18.70
2023-05-17T03:38:48.786Z,18.70
2023-05-17T03:41:18.122Z,18.70
2023-05-17T03:43:46.061Z,18.70
2023-05-17T03:46:14.552Z,18.70
2023-05-17T03:48:42.616Z,18.70
2023-05-17T03:51:10.724Z,18.70
2023-05-17T03:53:41.210Z,18.60
2023-05-17T03:56:09.429Z,18.60
2023-05-17T03:58:38.675Z,18.60
2023-05-17T04:01:06.785Z,18.70
2023-05-17T04:03:34.732Z,18.70
2023-05-17T04:06:06.231Z,18.60
2023-05-17T04:08:34.593Z,18.70
2023-05-17T04:11:12.205Z,18.70
2023-05-17T04:13:42.737Z,18.70
2023-05-17T04:16:11.363Z,18.60
2023-05-17T04:18:40.041Z,18.60
2023-05-17T04:21:08.352Z,18.60
2023-05-17T04:23:36.350Z,18.60
2023-05-17T04:26:06.083Z,18.60
2023-05-17T04:28:35.074Z,18.60
2023-05-17T04:31:08.452Z,18.60
2023-05-17T04:33:36.612Z,18.60
2023-05-17T04:36:05.070Z,18.60
2023-05-17T04:38:32.990Z,18.60
2023-05-17T04:41:04.670Z,18.60
2023-05-17T04:43:32.867Z,18.60
2023-05-17T04:46:01.698Z,18.60
2023-05-17T04:48:32.830Z,18.60
2023-05-17T04:51:04.053Z,18.60
2023-05-17T04:53:32.328Z,18.60
2023-05-17T04:56:00.718Z,18.60
2023-05-17T04:58:28.602Z,18.60
2023-05-17T05:00:56.691Z,18.60
2023-05-17T05:03:24.716Z,18.60
2023-05-17T05:05:53.994Z,18.60
2023-05-17T05:08:21.915Z,18.60
2023-05-17T05:10:51.481Z,18.60
2023-05-17T05:13:19.383Z,18.60
2023-05-17T05:15:47.294Z,18.60
2023-05-17T05:18:15.221Z,18.60
2023-05-17T05:20:44.235Z,18.50
2023-05-17T05:23:13.460Z,18.50
2023-05-17T05:25:41.377Z,18.60
2023-05-17T05:28:09.384Z,18.50
2023-05-17T05:30:37.315Z,18.50
2023-05-17T05:33:05.763Z,18.50
2023-05-17T05:35:33.753Z,18.50
2023-05-17T05:38:02.033Z,18.50
2023-05-17T05:40:31.503Z,18.50
2023-05-17T05:42:59.859Z,18.50
2023-05-17T05:45:27.859Z,18.50
2023-05-17T05:47:55.823Z,18.50
2023-05-17T05:50:23.803Z,18.50
2023-05-17T05:52:51.840Z,18.50
2023-05-17T05:55:19.899Z,18.50
2023-05-17T05:57:49.471Z,18.50
2023-05-17T06:00:18.618Z,18.50
2023-05-17T06:02:46.918Z,18.50
2023-05-17T06:05:14.949Z,18.50
2023-05-17T06:07:42.879Z,18.50
2023-05-17T06:10:12.040Z,18.50
2023-05-17T06:12:39.954Z,18.50
2023-05-17T06:15:10.646Z,18.50
2023-05-17T06:17:38.636Z,18.50
2023-05-17T06:20:07.394Z,18.50
2023-05-17T06:22:35.292Z,18.50
2023-05-17T06:25:03.172Z,18.50
2023-05-17T06:27:32.704Z,18.50
2023-05-17T06:30:00.876Z,18.50
2023-05-17T06:32:30.141Z,18.40
2023-05-17T06:34:58.125Z,18.40
2023-05-17T06:37:26.249Z,18.50
2023-05-17T06:40:00.205Z,18.50
2023-05-17T06:42:37.409Z,18.40
2023-05-17T06:45:06.195Z,18.50
2023-05-17T06:47:35.702Z,18.50
2023-05-17T06:50:04.203Z,18.40
2023-05-17T06:52:32.143Z,18.40
2023-05-17T06:55:00.009Z,18.40
2023-05-17T06:57:27.912Z,18.40
2023-05-17T06:59:55.795Z,18.40
2023-05-17T07:02:23.692Z,18.40
2023-05-17T07:04:55.173Z,18.40
2023-05-17T07:07:23.082Z,18.40
2023-05-17T07:09:51.014Z,18.40
2023-05-17T07:12:18.938Z,18.40
2023-05-17T07:14:47.001Z,18.40
2023-05-17T07:17:14.920Z,18.40
2023-05-17T07:19:42.957Z,18.40
2023-05-17T07:22:12.383Z,18.40
2023-05-17T07:24:40.301Z,18.40
2023-05-17T07:27:08.176Z,18.40
2023-05-17T07:29:36.249Z,18.40
2023-05-17T07:32:04.610Z,18.40
2023-05-17T07:34:32.680Z,18.40
2023-05-17T07:37:00.639Z,18.40
2023-05-17T07:39:30.103Z,18.40
2023-05-17T07:41:58.433Z,18.40
2023-05-17T07:44:28.840Z,18.40
2023-05-17T07:46:56.831Z,18.40
2023-05-17T07:49:25.220Z,18.40
2023-05-17T07:51:53.338Z,18.40
2023-05-17T07:54:26.897Z,18.40
2023-05-17T07:56:56.304Z,18.40
2023-05-17T07:59:24.277Z,18.40
2023-05-17T08:01:52.470Z,18.40
2023-05-17T08:04:20.679Z,18.40
2023-05-17T08:06:50.032Z,18.40
2023-05-17T08:09:18.464Z,18.40
2023-05-17T08:11:46.800Z,18.40
2023-05-17T08:14:16.850Z,18.40
2023-05-17T08:16:46.993Z,18.40
2023-05-17T08:19:16.456Z,18.40
2023-05-17T08:21:46.290Z,18.40
2023-05-17T08:24:14.524Z,18.40
2023-05-17T08:26:42.490Z,18.40
2023-05-17T08:29:10.452Z,18.40
2023-05-17T08:31:39.685Z,18.40
2023-05-17T08:34:07.793Z,18.40
2023-05-17T08:36:35.934Z,18.40
2023-05-17T08:39:04.155Z,18.40
2023-05-17T08:41:32.726Z,18.40
2023-05-17T08:44:01.124Z,18.40
2023-05-17T08:46:31.486Z,18.40
2023-05-17T08:49:02.091Z,18.40
2023-05-17T08:51:30.395Z,18.40
2023-05-17T08:53:59.397Z,18.40
2023-05-17T08:56:29.953Z,18.40
2023-05-17T08:58:58.903Z,18.40
2023-05-17T09:01:29.909Z,18.30
2023-05-17T09:04:01.561Z,18.40
2023-05-17T09:06:31.123Z,18.30
2023-05-17T09:09:01.453Z,18.40
2023-05-17T09:11:32.881Z,18.30
2023-05-17T09:14:01.840Z,18.30
2023-05-17T09:16:30.549Z,18.30
2023-05-17T09:19:01.215Z,18.30
2023-05-17T09:21:31.635Z,18.30
2023-05-17T09:24:07.342Z,18.30
2023-05-17T09:26:40.752Z,18.30
2023-05-17T09:29:12.190Z,18.30
2023-05-17T09:31:40.781Z,18.30
2023-05-17T09:34:10.405Z,18.30
2023-05-17T09:36:41.469Z,18.30
2023-05-17T09:39:12.225Z,18.30
2023-05-17T09:41:45.423Z,18.30
2023-05-17T09:44:14.551Z,18.30
2023-05-17T09:46:43.688Z,18.30
2023-05-17T09:49:14.105Z,18.30
2023-05-17T09:51:43.272Z,18.30
2023-05-17T09:54:12.145Z,18.30
2023-05-17T09:56:40.375Z,18.30
2023-05-17T09:59:13.226Z,18.30
2023-05-17T10:01:43.264Z,18.30
2023-05-17T10:04:13.459Z,18.30
2023-05-17T10:06:50.693Z,18.30
2023-05-17T10:09:22.132Z,18.30
2023-05-17T10:11:53.065Z,18.30
2023-05-17T10:14:27.887Z,18.30
2023-05-17T10:16:57.209Z,18.30
2023-05-17T10:19:27.835Z,18.30
2023-05-17T10:22:07.779Z,18.30
2023-05-17T10:24:47.323Z,18.30
2023-05-17T10:27:15.778Z,18.30
2023-05-17T10:29:47.655Z,18.30
2023-05-17T10:32:18.885Z,18.30
2023-05-17T10:35:01.593Z,18.30
2023-05-17T10:37:35.404Z,18.30
2023-05-17T10:40:03.500Z,18.30
2023-05-17T10:42:32.714Z,18.30
2023-05-17T10:45:02.352Z,18.30
2023-05-17T10:47:33.730Z,18.30
2023-05-17T10:50:03.618Z,18.30
2023-05-17T10:52:31.948Z,18.30
2023-05-17T10:55:01.296Z,18.30
2023-05-17T11:00:12.296Z,18.30
2023-05-17T11:02:43.012Z,18.30
2023-05-17T11:05:25.063Z,18.30
2023-05-17T11:07:53.032Z,18.30
2023-05-17T11:10:20.988Z,18.30
2023-05-17T11:12:55.237Z,18.30
2023-05-17T11:15:25.441Z,18.30
2023-05-17T11:17:54.861Z,18.30
2023-05-17T11:20:35.110Z,18.30
2023-05-17T11:23:05.895Z,18.30
2023-05-17T11:25:35.926Z,18.30
2023-05-17T11:28:09.877Z,18.30
2023-05-17T11:30:43.451Z,18.30
2023-05-17T11:33:21.259Z,18.30
2023-05-17T11:36:04.748Z,18.30
2023-05-17T11:38:33.001Z,18.30
2023-05-17T11:43:50.544Z,18.30
2023-05-17T11:46:22.511Z,18.30
2023-05-17T11:48:51.973Z,18.30
2023-05-17T11:51:24.720Z,18.30
2023-05-17T11:53:55.911Z,18.30
2023-05-17T11:56:35.699Z,18.30
2023-05-17T11:59:10.727Z,18.30
2023-05-17T12:01:46.014Z,18.30
2023-05-17T12:04:14.164Z,18.30
2023-05-17T12:06:45.607Z,18.30
2023-05-17T12:09:17.793Z,18.20
2023-05-17T12:11:46.234Z,18.30
2023-05-17T12:14:16.716Z,18.30
2023-05-17T12:16:45.984Z,18.30
2023-05-17T12:19:21.111Z,18.20
2023-05-17T12:21:50.720Z,18.30
2023-05-17T12:24:19.215Z,18.20
2023-05-17T12:26:48.311Z,18.30
2023-05-17T12:29:22.737Z,18.30
2023-05-17T12:31:53.493Z,18.30
2023-05-17T12:34:21.700Z,18.30
2023-05-17T12:36:52.817Z,18.20
2023-05-17T12:39:23.803Z,18.20
2023-05-17T12:41:52.826Z,18.30
2023-05-17T12:44:21.639Z,18.30
2023-05-17T12:46:53.769Z,18.30
2023-05-17T12:49:22.877Z,18.30
2023-05-17T12:51:52.147Z,18.30
2023-05-17T12:54:29.855Z,18.30
2023-05-17T12:56:58.439Z,18.20
2023-05-17T12:59:28.706Z,18.20
2023-05-17T13:01:58.539Z,18.20
2023-05-17T13:04:32.945Z,18.30
2023-05-17T13:07:03.891Z,18.20
2023-05-17T13:09:33.294Z,18.30
2023-05-17T13:12:02.235Z,18.20
2023-05-17T13:14:38.013Z,18.20
2023-05-17T13:17:07.158Z,18.30
2023-05-17T13:19:35.960Z,18.20
2023-05-17T13:22:06.615Z,18.20
2023-05-17T13:24:36.454Z,18.20
2023-05-17T13:27:05.332Z,18.20
2023-05-17T13:29:39.454Z,18.30
2023-05-17T13:32:10.047Z,18.20
2023-05-17T13:34:38.105Z,18.30
2023-05-17T13:37:11.456Z,18.30
2023-05-17T13:39:40.390Z,18.20
2023-05-17T13:42:08.541Z,18.30
2023-05-17T13:44:36.495Z,18.20
2023-05-17T13:47:04.627Z,18.20
2023-05-17T13:49:32.681Z,18.30
2023-05-17T13:52:00.819Z,18.20
2023-05-17T13:54:30.156Z,18.20
2023-05-17T13:56:58.154Z,18.20
2023-05-17T13:59:26.230Z,18.20
2023-05-17T14:01:54.143Z,18.20
2023-05-17T14:04:22.636Z,18.20
2023-05-17T14:06:54.186Z,18.20
2023-05-17T14:09:23.104Z,18.20
2023-05-17T14:11:52.399Z,18.20
2023-05-17T14:14:20.483Z,18.20
2023-05-17T14:16:48.414Z,18.20
2023-05-17T14:19:16.496Z,18.20
2023-05-17T14:21:44.513Z,18.20
2023-05-17T14:24:12.408Z,18.30
2023-05-17T14:26:40.526Z,18.30
2023-05-17T14:29:09.837Z,18.20
2023-05-17T14:31:37.714Z,18.20
2023-05-17T14:34:05.746Z,18.20
2023-05-17T14:36:36.258Z,18.20
2023-05-17T14:39:05.421Z,18.20
2023-05-17T14:41:33.339Z,18.20
2023-05-17T14:44:01.316Z,18.30
2023-05-17T14:46:30.578Z,18.30
2023-05-17T14:48:58.577Z,18.20
2023-05-17T14:51:26.630Z,18.20
2023-05-17T14:53:54.568Z,18.20
2023-05-17T14:56:22.607Z,18.20
2023-05-17T14:58:51.156Z,18.20
2023-05-17T15:01:19.275Z,18.30
2023-05-17T15:03:48.668Z,18.30
2023-05-17T15:06:17.191Z,18.20
2023-05-17T15:08:45.092Z,18.20
2023-05-17T15:11:13.735Z,18.30
2023-05-17T15:13:41.741Z,18.20
2023-05-17T15:16:10.229Z,18.20
2023-05-17T15:18:38.238Z,18.20
2023-05-17T15:21:07.723Z,18.20
2023-05-17T15:23:35.622Z,18.20
2023-05-17T15:26:03.559Z,18.20
2023-05-17T15:28:31.634Z,18.20
2023-05-17T15:31:02.606Z,18.20
2023-05-17T15:33:32.172Z,18.30
2023-05-17T15:36:00.183Z,18.30
2023-05-17T15:38:29.447Z,18.30
2023-05-17T15:41:03.797Z,18.30
2023-05-17T15:43:32.117Z,18.20
2023-05-17T15:46:00.193Z,18.20
2023-05-17T15:48:29.122Z,18.30
2023-05-17T15:50:57.365Z,18.30
2023-05-17T15:53:25.596Z,18.30
2023-05-17T15:55:54.868Z,18.20
2023-05-17T15:58:24.200Z,18.30
2023-05-17T16:00:52.380Z,18.20
2023-05-17T16:03:20.364Z,18.30
2023-05-17T16:05:48.387Z,18.30
2023-05-17T16:08:16.472Z,18.20
2023-05-17T16:10:44.393Z,18.30
2023-05-17T16:13:13.733Z,18.30
2023-05-17T16:15:41.713Z,18.30
2023-05-17T16:18:10.724Z,18.30
2023-05-17T16:20:38.808Z,18.30
2023-05-17T16:23:07.296Z,18.30
2023-05-17T16:25:36.608Z,18.30
2023-05-17T16:28:04.597Z,18.30
2023-05-17T16:30:33.826Z,18.30
2023-05-17T16:33:01.858Z,18.30
2023-05-17T16:35:30.143Z,18.30
2023-05-17T16:37:58.194Z,18.30
2023-05-17T16:40:28.803Z,18.30
2023-05-17T16:42:56.933Z,18.30
2023-05-17T16:45:24.970Z,18.30
2023-05-17T16:47:54.198Z,18.30
2023-05-17T16:50:22.109Z,18.30
2023-05-17T16:52:50.030Z,18.30
2023-05-17T16:55:17.910Z,18.30
2023-05-17T16:57:45.815Z,18.30
2023-05-17T17:00:14.779Z,18.30
2023-05-17T17:02:42.696Z,18.30
2023-05-17T17:05:12.102Z,18.30
2023-05-17T17:07:40.008Z,18.30
2023-05-17T17:10:08.835Z,18.30
2023-05-17T17:12:36.757Z,18.30
2023-05-17T17:15:07.545Z,18.30
2023-05-17T17:17:36.134Z,18.30
2023-05-17T17:20:05.502Z,18.30
2023-05-17T17:22:34.767Z,18.30
2023-05-17T17:25:02.902Z,18.30
2023-05-17T17:27:30.821Z,18.30
2023-05-17T17:29:58.718Z,18.30
2023-05-17T17:32:26.903Z,18.30
2023-05-17T17:34:54.909Z,18.30
2023-05-17T17:37:22.903Z,18.30
2023-05-17T17:39:52.119Z,18.30
2023-05-17T17:42:20.798Z,18.30
2023-05-17T17:44:48.714Z,18.40
2023-05-17T17:47:16.697Z,18.40
2023-05-17T17:49:44.631Z,18.40
2023-05-17T17:52:12.597Z,18.30
2023-05-17T17:54:40.561Z,18.40
2023-05-17T17:57:09.875Z,18.30
2023-05-17T17:59:37.773Z,18.40
2023-05-17T18:02:05.959Z,18.30
2023-05-17T18:04:34.007Z,18.40
2023-05-17T18:07:02.261Z,18.40
2023-05-17T18:09:30.216Z,18.40
2023-05-17T18:11:59.508Z,18.40
2023-05-17T18:14:28.791Z,18.30
2023-05-17T18:16:56.808Z,18.40
2023-05-17T18:19:24.840Z,18.40
2023-05-17T18:21:52.852Z,18.40
2023-05-17T18:24:20.831Z,18.30
2023-05-17T18:26:48.703Z,18.40
2023-05-17T18:29:16.608Z,18.40
2023-05-17T18:31:47.407Z,18.30
2023-05-17T18:34:15.545Z,18.40
2023-05-17T18:36:43.452Z,18.40
2023-05-17T18:39:11.592Z,18.40
2023-05-17T18:41:39.562Z,18.40
2023-05-17T18:44:07.484Z,18.40
2023-05-17T18:46:35.463Z,18.30
2023-05-17T18:49:05.556Z,18.30
2023-05-17T18:51:33.527Z,18.40
2023-05-17T18:54:01.459Z,18.30
2023-05-17T18:56:30.421Z,18.40
2023-05-17T18:58:58.446Z,18.40
2023-05-17T19:01:26.764Z,18.30
2023-05-17T19:03:56.322Z,18.40
2023-05-17T19:06:27.595Z,18.30
2023-05-17T19:08:58.197Z,18.40
2023-05-17T19:11:26.418Z,18.40
2023-05-17T19:13:54.356Z,18.40
2023-05-17T19:16:22.485Z,18.40
2023-05-17T19:18:50.963Z,18.40
2023-05-17T19:21:19.072Z,18.30
2023-05-17T19:23:48.377Z,18.40
2023-05-17T19:26:16.286Z,18.40
2023-05-17T19:28:44.227Z,18.40
2023-05-17T19:31:12.234Z,18.30
2023-05-17T19:33:40.294Z,18.40
2023-05-17T19:36:08.358Z,18.40
2023-05-17T19:38:36.310Z,18.30
2023-05-17T19:41:07.323Z,18.30
2023-05-17T19:43:35.766Z,18.30
2023-05-17T19:46:03.998Z,18.40
2023-05-17T19:48:31.952Z,18.40
2023-05-17T19:50:59.886Z,18.30
2023-05-17T19:53:36.959Z,18.40
2023-05-17T19:56:13.395Z,18.40
2023-05-17T19:58:41.390Z,18.40
2023-05-17T20:01:09.283Z,18.40
2023-05-17T20:03:37.341Z,18.30
2023-05-17T20:06:05.493Z,18.40
2023-05-17T20:08:33.389Z,18.40
2023-05-17T20:11:01.344Z,18.40
2023-05-17T20:13:31.269Z,18.30
2023-05-17T20:15:59.211Z,18.40
2023-05-17T20:18:29.988Z,18.30
2023-05-17T20:20:58.021Z,18.30
2023-05-17T20:23:25.944Z,18.30
2023-05-17T20:25:53.845Z,18.40
2023-05-17T20:28:21.806Z,18.40
2023-05-17T20:30:51.161Z,18.30
2023-05-17T20:33:21.822Z,18.40
2023-05-17T20:35:49.743Z,18.30
2023-05-17T20:38:17.671Z,18.40
2023-05-17T20:40:45.667Z,18.30
2023-05-17T20:43:14.358Z,18.40
2023-05-17T20:45:42.400Z,18.40
2023-05-17T20:48:11.701Z,18.30
2023-05-17T20:50:40.332Z,18.40
2023-05-17T20:53:10.356Z,18.40
2023-05-17T20:55:38.378Z,18.30
2023-05-17T20:58:06.443Z,18.30
2023-05-17T21:00:34.396Z,18.30
2023-05-17T21:03:02.667Z,18.30
2023-05-17T21:05:35.994Z,18.30
2023-05-17T21:08:04.052Z,18.30
2023-05-17T21:10:32.335Z,18.40
2023-05-17T21:13:00.446Z,18.30
2023-05-17T21:15:28.383Z,18.30
2023-05-17T21:17:57.476Z,18.40
2023-05-17T21:20:25.496Z,18.30
2023-05-17T21:22:54.853Z,18.30
2023-05-17T21:25:22.928Z,18.40
2023-05-17T21:27:51.477Z,18.30
2023-05-17T21:30:19.405Z,18.30
2023-05-17T21:32:47.391Z,18.30
2023-05-17T21:35:15.588Z,18.30
2023-05-17T21:37:43.565Z,18.30
2023-05-17T21:40:13.281Z,18.30
2023-05-17T21:42:41.239Z,18.40
2023-05-17T21:45:09.964Z,18.30
2023-05-17T21:47:37.954Z,18.30
2023-05-17T21:50:06.896Z,18.30
2023-05-17T21:52:35.067Z,18.30
2023-05-17T21:55:02.995Z,18.30
2023-05-17T21:57:35.992Z,18.30
2023-05-17T22:00:05.196Z,18.30
2023-05-17T22:02:34.884Z,18.30
2023-05-17T22:05:03.129Z,18.30
2023-05-17T22:07:31.252Z,18.30
2023-05-17T22:10:00.298Z,18.30
2023-05-17T22:12:28.370Z,18.30
2023-05-17T22:14:58.573Z,18.30
2023-05-17T22:17:35.198Z,18.30
2023-05-17T22:20:10.988Z,18.30
2023-05-17T22:22:38.997Z,18.30
2023-05-17T22:25:07.949Z,18.30
2023-05-17T22:27:36.081Z,18.30
2023-05-17T22:30:06.247Z,18.30
2023-05-17T22:32:34.295Z,18.30
2023-05-17T22:35:02.242Z,18.30
2023-05-17T22:37:30.309Z,18.30
2023-05-17T22:39:58.195Z,18.30
2023-05-17T22:42:26.132Z,18.30
2023-05-17T22:44:54.043Z,18.30
2023-05-17T22:47:26.619Z,18.30
2023-05-17T22:49:54.624Z,18.30
2023-05-17T22:52:22.551Z,18.30
2023-05-17T22:54:50.560Z,18.30
2023-05-17T22:57:18.454Z,18.30
2023-05-17T22:59:46.415Z,18.30
2023-05-17T23:02:14.383Z,18.30
2023-05-17T23:04:45.958Z,18.30
2023-05-17T23:07:14.990Z,18.30
2023-05-17T23:09:43.000Z,18.30
2023-05-17T23:12:14.177Z,18.30
2023-05-17T23:14:42.536Z,18.30
2023-05-17T23:17:10.491Z,18.30
2023-05-17T23:19:40.616Z,18.30
2023-05-17T23:22:10.721Z,18.30
2023-05-17T23:24:39.087Z,18.30
2023-05-17T23:27:09.934Z,18.30
2023-05-17T23:29:40.963Z,18.30
2023-05-17T23:32:09.065Z,18.30
2023-05-17T23:34:37.047Z,18.30
2023-05-17T23:37:04.975Z,18.30
2023-05-17T23:39:34.231Z,18.30
2023-05-17T23:42:02.126Z,18.30
2023-05-17T23:44:30.574Z,18.30
2023-05-17T23:46:59.969Z,18.30
2023-05-17T23:49:28.151Z,18.30
2023-05-17T23:51:56.155Z,18.30
2023-05-17T23:54:24.418Z,18.30
2023-05-17T23:56:53.682Z,18.30
2023-05-17T23:59:24.270Z,18.30
